Time;durP1;ratioP1;P1;durP2;ratioP2;P2;SDS_P1;SDS_P2;PMS_P1;PMS_P2;Temp;Humidity;BMP_temperature;BMP_pressure;BME280_temperature;BME280_humidity;BME280_pressure;Samples;Min_cycle;Max_cycle;Signal;HPM_P1;HPM_P2
2021/03/06 00:00:54;;;;;;;9.07;7.28;;;0.80;99.90;;;;;;5034779;28;20239;-38
2021/03/06 00:03:23;;;;;;;7.65;6.95;;;0.80;99.90;;;;;;5034573;28;20240;-39
2021/03/06 00:05:51;;;;;;;7.00;6.38;;;0.70;99.90;;;;;;5034823;28;20209;-40
2021/03/06 00:08:19;;;;;;;7.13;6.53;;;0.70;99.90;;;;;;5034563;28;20600;-39
2021/03/06 00:10:46;;;;;;;7.03;6.43;;;0.70;99.90;;;;;;5034812;28;20319;-39
2021/03/06 00:13:13;;;;;;;8.05;7.25;;;0.70;99.90;;;;;;5034652;28;20573;-39
2021/03/06 00:15:40;;;;;;;8.65;7.00;;;0.70;99.90;;;;;;5034531;28;20299;-39
2021/03/06 00:18:07;;;;;;;8.05;7.25;;;0.70;99.90;;;;;;5034528;28;20216;-40
2021/03/06 00:20:34;;;;;;;7.63;6.85;;;0.70;99.90;;;;;;5034334;28;20572;-45
2021/03/06 00:23:02;;;;;;;7.05;6.40;;;0.70;99.90;;;;;;5034235;28;20323;-40
2021/03/06 00:25:29;;;;;;;8.25;7.45;;;0.70;99.90;;;;;;5034480;28;20255;-40
2021/03/06 00:27:56;;;;;;;8.68;6.88;;;0.70;99.90;;;;;;5034338;28;20239;-41
2021/03/06 00:30:24;;;;;;;8.48;6.95;;;0.60;99.90;;;;;;5034291;28;20309;-42
2021/03/06 00:32:51;;;;;;;7.20;6.50;;;0.60;99.90;;;;;;5034274;28;20213;-40
2021/03/06 00:35:18;;;;;;;8.30;6.85;;;0.60;99.90;;;;;;5033877;28;20213;-40
2021/03/06 00:37:45;;;;;;;9.48;7.10;;;0.60;99.90;;;;;;5034040;28;20307;-40
2021/03/06 00:40:13;;;;;;;7.55;6.85;;;0.60;99.90;;;;;;5034238;28;20319;-39
2021/03/06 00:42:40;;;;;;;8.70;7.80;;;0.60;99.90;;;;;;5034069;28;20296;-39
2021/03/06 00:45:09;;;;;;;7.75;7.05;;;0.60;99.90;;;;;;5033909;28;20213;-40
2021/03/06 00:47:36;;;;;;;8.32;7.07;;;0.60;99.90;;;;;;5033888;28;20291;-39
2021/03/06 00:50:07;;;;;;;10.40;7.88;;;0.60;99.90;;;;;;5033768;28;20562;-40
2021/03/06 00:52:34;;;;;;;13.30;9.75;;;0.60;99.90;;;;;;5033911;28;20213;-39
2021/03/06 00:55:01;;;;;;;16.13;10.10;;;0.60;99.90;;;;;;5033881;28;20650;-39
2021/03/06 00:57:29;;;;;;;11.30;8.30;;;0.50;99.90;;;;;;5033608;28;20239;-39
2021/03/06 00:59:57;;;;;;;9.13;7.70;;;0.50;99.90;;;;;;5033663;28;20258;-39
2021/03/06 01:02:24;;;;;;;10.23;7.97;;;0.50;99.90;;;;;;5033457;28;20251;-44
2021/03/06 01:04:52;;;;;;;8.18;7.45;;;0.50;99.90;;;;;;5033707;28;20215;-40
2021/03/06 01:07:19;;;;;;;8.38;7.60;;;0.50;99.90;;;;;;5033586;28;20244;-40
2021/03/06 01:09:46;;;;;;;8.35;7.63;;;0.40;99.90;;;;;;5033453;28;20292;-40
2021/03/06 01:12:13;;;;;;;8.35;7.18;;;0.40;99.90;;;;;;5033444;28;20304;-40
2021/03/06 01:14:40;;;;;;;10.10;7.68;;;0.40;99.90;;;;;;5033370;28;20214;-40
2021/03/06 01:17:07;;;;;;;9.05;8.15;;;0.40;99.90;;;;;;5033270;28;20667;-41
2021/03/06 01:19:34;;;;;;;8.88;7.28;;;0.40;99.90;;;;;;5033156;28;20257;-41
2021/03/06 01:22:01;;;;;;;8.00;7.22;;;0.40;99.90;;;;;;5033192;28;20307;-41
2021/03/06 01:24:35;;;;;;;7.97;6.93;;;0.40;99.90;;;;;;5033312;28;20205;-40
2021/03/06 01:27:02;;;;;;;8.00;7.20;;;0.30;99.90;;;;;;5033034;28;20278;-41
2021/03/06 01:29:29;;;;;;;7.88;7.18;;;0.30;99.90;;;;;;5033077;28;20292;-40
2021/03/06 01:31:57;;;;;;;7.75;7.05;;;0.20;99.90;;;;;;5033250;28;20270;-41
2021/03/06 01:34:25;;;;;;;9.18;7.72;;;0.20;99.90;;;;;;5033073;28;20213;-41
2021/03/06 01:36:52;;;;;;;8.38;7.53;;;0.20;99.90;;;;;;5032972;28;20205;-41
2021/03/06 01:39:19;;;;;;;10.35;7.63;;;0.20;99.90;;;;;;5032966;28;20240;-41
2021/03/06 01:41:46;;;;;;;8.57;7.78;;;0.20;99.90;;;;;;5032732;28;20216;-41
2021/03/06 01:44:13;;;;;;;8.35;7.55;;;0.20;99.90;;;;;;5032780;28;20213;-41
2021/03/06 01:46:41;;;;;;;9.57;8.57;;;0.20;99.90;;;;;;5033128;28;20209;-41
2021/03/06 01:49:09;;;;;;;8.27;7.45;;;0.30;99.90;;;;;;5032941;28;20235;-41
2021/03/06 01:51:36;;;;;;;8.45;7.38;;;0.20;99.90;;;;;;5032759;28;20240;-41
2021/03/06 01:54:05;;;;;;;11.07;8.32;;;0.30;99.90;;;;;;5032698;28;20675;-41
2021/03/06 01:56:32;;;;;;;9.15;7.60;;;0.20;99.90;;;;;;5032546;28;20271;-40
2021/03/06 01:59:00;;;;;;;9.13;7.82;;;0.20;99.90;;;;;;5032385;28;20255;-40
2021/03/06 02:01:28;;;;;;;9.88;8.88;;;0.20;99.90;;;;;;5032487;28;20228;-41
2021/03/06 02:03:57;;;;;;;8.70;7.82;;;0.20;99.90;;;;;;5032693;28;20215;-41
2021/03/06 02:06:26;;;;;;;8.30;7.60;;;0.20;99.90;;;;;;5032551;28;20291;-40
2021/03/06 02:08:54;;;;;;;8.63;7.82;;;0.20;99.90;;;;;;5031839;28;20303;-40
2021/03/06 02:11:33;;;;;;;8.50;7.30;;;0.20;99.90;;;;;;5032164;28;20296;-41
2021/03/06 02:14:23;;;;;;;8.55;7.47;;;0.30;99.90;;;;;;5032647;28;20312;-40
2021/03/06 02:16:56;;;;;;;8.45;6.80;;;0.30;99.90;;;;;;5032285;28;20205;-40
2021/03/06 02:19:46;;;;;;;8.40;7.53;;;0.30;99.90;;;;;;5032126;28;20702;-41
2021/03/06 02:22:28;;;;;;;8.27;7.47;;;0.30;99.90;;;;;;5032380;28;20259;-40
2021/03/06 02:25:22;;;;;;;9.15;7.18;;;0.20;99.90;;;;;;5032159;28;20244;-40
2021/03/06 02:27:58;;;;;;;7.82;6.82;;;0.20;99.90;;;;;;5031956;28;20247;-40
2021/03/06 02:30:29;;;;;;;8.52;7.20;;;0.20;99.90;;;;;;5032289;28;20606;-40
2021/03/06 02:33:00;;;;;;;10.32;7.57;;;0.20;99.90;;;;;;5032339;28;20295;-40
2021/03/06 02:35:32;;;;;;;8.23;7.28;;;0.20;99.90;;;;;;5032037;28;20213;-40
2021/03/06 02:38:03;;;;;;;8.07;7.35;;;0.20;99.90;;;;;;5032216;28;20579;-40
2021/03/06 02:40:31;;;;;;;7.25;6.60;;;0.20;99.90;;;;;;5031913;28;20593;-41
2021/03/06 02:42:58;;;;;;;8.77;7.07;;;0.20;99.90;;;;;;5032194;28;20230;-41
2021/03/06 02:45:28;;;;;;;7.35;6.75;;;0.10;99.90;;;;;;5031882;28;20274;-41
2021/03/06 02:47:56;;;;;;;7.88;6.97;;;0.10;99.90;;;;;;5031869;28;20299;-41
2021/03/06 02:50:23;;;;;;;7.82;7.13;;;0.10;99.90;;;;;;5031878;28;20204;-41
2021/03/06 02:52:50;;;;;;;8.07;7.22;;;0.10;99.90;;;;;;5031661;28;20299;-41
2021/03/06 02:55:34;;;;;;;7.88;6.95;;;0.00;99.90;;;;;;5031927;28;20291;-40
2021/03/06 02:58:15;;;;;;;8.57;7.45;;;-0.10;99.90;;;;;;5031790;28;20661;-40
2021/03/06 03:00:45;;;;;;;8.73;7.50;;;-0.20;99.90;;;;;;5031679;28;20263;-41
2021/03/06 03:03:39;;;;;;;7.85;7.05;;;-0.30;99.90;;;;;;5031525;28;20276;-42
2021/03/06 03:06:14;;;;;;;7.47;6.72;;;-0.30;99.90;;;;;;5031772;28;20215;-41
2021/03/06 03:08:53;;;;;;;8.63;6.65;;;-0.30;99.90;;;;;;5031766;28;20235;-42
2021/03/06 03:11:22;;;;;;;9.73;7.80;;;-0.30;99.90;;;;;;5031710;28;20307;-41
2021/03/06 03:13:54;;;;;;;7.93;7.15;;;-0.30;99.90;;;;;;5031509;28;20213;-41
2021/03/06 03:16:24;;;;;;;7.80;7.00;;;-0.30;99.90;;;;;;5031908;28;20240;-41
2021/03/06 03:18:58;;;;;;;8.07;7.10;;;-0.30;99.90;;;;;;5031589;28;20211;-40
2021/03/06 03:21:29;;;;;;;7.15;6.47;;;-0.30;99.90;;;;;;5034525;28;20232;-40
2021/03/06 03:23:59;;;;;;;7.43;6.72;;;-0.30;99.90;;;;;;5035511;28;20620;-40
2021/03/06 03:26:28;;;;;;;7.45;6.70;;;-0.30;99.90;;;;;;5035460;28;20307;-41
2021/03/06 03:28:56;;;;;;;8.43;6.05;;;-0.30;99.90;;;;;;5035690;28;20251;-41
2021/03/06 03:31:26;;;;;;;8.05;7.10;;;-0.40;99.90;;;;;;5035602;28;20341;-41
2021/03/06 03:33:54;;;;;;;8.63;6.55;;;-0.30;99.90;;;;;;5035287;28;20213;-41
2021/03/06 03:36:23;;;;;;;7.38;6.43;;;-0.30;99.90;;;;;;5035352;28;20212;-41
2021/03/06 03:38:51;;;;;;;9.27;7.50;;;-0.30;99.90;;;;;;5035482;28;20371;-41
2021/03/06 03:41:18;;;;;;;11.52;8.88;;;-0.20;99.90;;;;;;5035311;28;20232;-40
2021/03/06 03:43:46;;;;;;;16.90;10.25;;;-0.20;99.90;;;;;;5035459;28;20296;-41
2021/03/06 03:46:14;;;;;;;12.05;8.77;;;-0.10;99.90;;;;;;5035235;28;20703;-41
2021/03/06 03:48:44;;;;;;;8.38;7.40;;;-0.20;99.90;;;;;;5035083;28;20209;-41
2021/03/06 03:51:12;;;;;;;10.10;6.43;;;-0.20;99.90;;;;;;5035237;28;20216;-40
2021/03/06 03:53:39;;;;;;;7.45;6.80;;;-0.20;99.90;;;;;;5035326;28;20247;-40
2021/03/06 03:56:24;;;;;;;8.93;7.43;;;-0.20;99.90;;;;;;5034983;28;20215;-41
2021/03/06 03:58:51;;;;;;;7.25;6.50;;;-0.10;99.90;;;;;;5035037;28;20238;-41
2021/03/06 04:01:18;;;;;;;7.10;6.40;;;-0.10;99.90;;;;;;5034728;28;20323;-42
2021/03/06 04:03:46;;;;;;;7.03;6.32;;;-0.10;99.90;;;;;;5034753;28;20247;-42
2021/03/06 04:06:13;;;;;;;7.03;6.32;;;-0.10;99.90;;;;;;5034985;28;20204;-40
2021/03/06 04:08:40;;;;;;;7.60;6.60;;;-0.10;99.90;;;;;;5034907;28;20311;-40
2021/03/06 04:11:07;;;;;;;7.18;6.47;;;-0.20;99.90;;;;;;5034636;28;20667;-41
2021/03/06 04:13:34;;;;;;;8.05;6.85;;;-0.20;99.90;;;;;;5034727;28;20209;-41
2021/03/06 04:16:01;;;;;;;9.68;6.43;;;-0.10;99.90;;;;;;5034535;28;20308;-41
2021/03/06 04:18:28;;;;;;;7.33;6.63;;;-0.10;99.90;;;;;;5034853;28;20204;-41
2021/03/06 04:20:57;;;;;;;7.20;6.53;;;-0.10;99.90;;;;;;5034362;28;20328;-41
2021/03/06 04:23:23;;;;;;;7.68;6.35;;;-0.10;99.90;;;;;;5034556;28;20244;-42
2021/03/06 04:25:50;;;;;;;8.27;6.53;;;-0.10;99.90;;;;;;5034659;28;20215;-42
2021/03/06 04:28:17;;;;;;;6.40;5.83;;;-0.10;99.90;;;;;;5034487;28;20292;-40
2021/03/06 04:30:44;;;;;;;8.83;6.50;;;-0.10;99.90;;;;;;5033668;28;20284;-41
2021/03/06 04:33:11;;;;;;;7.47;6.32;;;-0.10;99.90;;;;;;5034433;28;20626;-41
2021/03/06 04:35:38;;;;;;;7.23;6.50;;;-0.20;99.90;;;;;;5034482;28;20302;-41
2021/03/06 04:38:09;;;;;;;7.57;6.87;;;-0.20;99.90;;;;;;5034381;28;20391;-40
2021/03/06 04:40:36;;;;;;;8.50;6.35;;;-0.20;99.90;;;;;;5034088;28;20254;-41
2021/03/06 04:43:03;;;;;;;7.90;7.10;;;-0.30;99.90;;;;;;5034142;28;20526;-41
2021/03/06 04:45:30;;;;;;;7.90;7.10;;;-0.30;99.90;;;;;;5034111;28;20216;-41
2021/03/06 04:47:57;;;;;;;8.00;7.25;;;-0.30;99.90;;;;;;5033959;28;20768;-40
2021/03/06 04:50:25;;;;;;;7.85;6.88;;;-0.40;99.90;;;;;;5034086;28;20259;-40
2021/03/06 04:52:52;;;;;;;7.78;7.07;;;-0.50;99.90;;;;;;5033865;28;20217;-42
2021/03/06 04:55:20;;;;;;;7.82;7.10;;;-0.60;99.90;;;;;;5033921;28;20244;-41
2021/03/06 04:57:47;;;;;;;7.57;6.80;;;-0.60;99.90;;;;;;5033862;28;20244;-42
2021/03/06 05:00:15;;;;;;;7.27;6.47;;;-0.60;99.90;;;;;;5033864;28;20279;-42
2021/03/06 05:02:42;;;;;;;7.63;6.70;;;-0.60;99.90;;;;;;5033713;28;20329;-45
2021/03/06 05:05:11;;;;;;;8.48;6.85;;;-0.70;99.90;;;;;;5033753;28;20659;-42
2021/03/06 05:07:37;;;;;;;8.23;6.63;;;-0.70;99.90;;;;;;5033831;28;20251;-42
2021/03/06 05:10:06;;;;;;;6.93;6.25;;;-0.70;99.90;;;;;;5033809;28;20635;-42
2021/03/06 05:12:33;;;;;;;9.05;8.15;;;-0.70;99.90;;;;;;5033496;28;20320;-41
2021/03/06 05:15:00;;;;;;;9.40;8.00;;;-0.70;99.90;;;;;;5033653;28;20646;-42
2021/03/06 05:17:29;;;;;;;7.80;7.07;;;-0.60;99.90;;;;;;5033696;28;20205;-42
2021/03/06 05:19:56;;;;;;;7.93;7.13;;;-0.60;99.90;;;;;;5033541;28;20301;-43
2021/03/06 05:22:23;;;;;;;11.52;6.70;;;-0.60;99.90;;;;;;5033262;28;20292;-42
2021/03/06 05:24:50;;;;;;;7.20;6.50;;;-0.60;99.90;;;;;;5033210;28;20209;-42
2021/03/06 05:27:29;;;;;;;8.13;7.32;;;-0.60;99.90;;;;;;5033444;28;20212;-41
2021/03/06 05:29:57;;;;;;;7.03;6.43;;;-0.70;99.90;;;;;;5032907;28;20663;-41
2021/03/06 05:32:23;;;;;;;6.60;5.88;;;-0.70;99.90;;;;;;5033121;28;20208;-41
2021/03/06 05:34:50;;;;;;;6.47;5.88;;;-0.70;99.90;;;;;;5032894;28;20299;-41
2021/03/06 05:37:17;;;;;;;5.97;5.47;;;-0.60;99.90;;;;;;5032940;28;20247;-41
2021/03/06 05:39:44;;;;;;;9.07;6.25;;;-0.60;99.90;;;;;;5033269;28;20213;-41
2021/03/06 05:42:11;;;;;;;10.57;7.82;;;-0.60;99.90;;;;;;5032458;28;20208;-41
2021/03/06 05:44:41;;;;;;;6.88;5.43;;;-0.60;99.90;;;;;;5032433;28;20292;-42
2021/03/06 05:47:09;;;;;;;6.70;5.57;;;-0.50;99.90;;;;;;5032772;28;20212;-42
2021/03/06 05:49:36;;;;;;;6.43;5.78;;;-0.50;99.90;;;;;;5032895;28;20209;-42
2021/03/06 05:52:06;;;;;;;7.43;6.20;;;-0.50;99.90;;;;;;5032838;28;20209;-42
2021/03/06 05:54:36;;;;;;;5.60;5.00;;;-0.50;99.90;;;;;;5033069;28;20244;-42
2021/03/06 05:57:05;;;;;;;6.28;5.70;;;-0.50;99.90;;;;;;5032995;28;20664;-41
2021/03/06 05:59:32;;;;;;;6.90;6.13;;;-0.50;99.90;;;;;;5032587;28;20255;-42
2021/03/06 06:02:00;;;;;;;6.30;5.70;;;-0.60;99.90;;;;;;5032312;28;20244;-41
2021/03/06 06:04:29;;;;;;;6.40;5.47;;;-0.60;99.90;;;;;;5032878;28;20212;-41
2021/03/06 06:06:57;;;;;;;6.80;5.45;;;-0.60;99.90;;;;;;5032676;28;20305;-41
2021/03/06 06:09:25;;;;;;;7.45;6.68;;;-0.60;99.90;;;;;;5032799;28;20291;-41
2021/03/06 06:11:52;;;;;;;8.25;5.97;;;-0.60;99.90;;;;;;5032577;28;20200;-42
2021/03/06 06:14:35;;;;;;;8.43;6.65;;;-0.60;99.90;;;;;;5032676;28;20291;-41
2021/03/06 06:17:06;;;;;;;7.60;6.30;;;-0.50;99.90;;;;;;5032431;28;20232;-41
2021/03/06 06:19:34;;;;;;;12.25;6.35;;;-0.50;99.90;;;;;;5032658;28;20299;-41
2021/03/06 06:22:01;;;;;;;7.35;6.35;;;-0.40;99.90;;;;;;5032570;28;20324;-41
2021/03/06 06:24:28;;;;;;;9.07;6.30;;;-0.40;99.90;;;;;;5032351;28;20278;-42
2021/03/06 06:26:57;;;;;;;8.30;6.30;;;-0.40;99.90;;;;;;5032384;28;20236;-41
2021/03/06 06:29:38;;;;;;;5.93;5.43;;;-0.30;99.90;;;;;;5032204;28;20299;-41
2021/03/06 06:32:08;;;;;;;7.07;5.97;;;-0.20;99.90;;;;;;5032223;28;20232;-41
2021/03/06 06:34:37;;;;;;;8.60;6.80;;;-0.10;99.90;;;;;;5032285;28;20212;-41
2021/03/06 06:37:14;;;;;;;6.85;6.25;;;0.00;99.90;;;;;;5032140;28;20209;-41
2021/03/06 06:39:43;;;;;;;7.13;6.35;;;0.10;99.90;;;;;;5031953;28;20248;-42
2021/03/06 06:42:10;;;;;;;8.70;5.50;;;0.20;99.90;;;;;;5031875;28;20271;-42
2021/03/06 06:44:38;;;;;;;7.78;5.90;;;0.40;99.90;;;;;;5032249;28;20622;-41
2021/03/06 06:47:13;;;;;;;8.10;5.37;;;0.50;99.90;;;;;;5031794;28;20554;-41
2021/03/06 06:49:45;;;;;;;7.18;6.43;;;0.50;99.90;;;;;;5031697;28;20311;-41
2021/03/06 06:52:13;;;;;;;7.97;6.60;;;0.50;99.90;;;;;;5032347;28;20243;-41
2021/03/06 06:54:40;;;;;;;6.30;5.70;;;0.60;99.90;;;;;;5031627;28;20295;-41
2021/03/06 06:57:12;;;;;;;9.43;5.57;;;0.60;99.90;;;;;;5031786;28;20301;-42
2021/03/06 06:59:51;;;;;;;6.75;5.35;;;0.70;99.90;;;;;;5031817;28;20563;-42
2021/03/06 07:02:18;;;;;;;6.35;5.45;;;0.70;99.90;;;;;;5031424;28;20644;-42
2021/03/06 07:04:49;;;;;;;7.78;6.43;;;0.80;99.90;;;;;;5031623;28;20299;-44
2021/03/06 07:07:17;;;;;;;6.78;6.10;;;0.90;99.90;;;;;;5031901;28;20209;-44
2021/03/06 07:09:58;;;;;;;9.75;6.05;;;0.90;99.90;;;;;;5031602;28;20208;-44
2021/03/06 07:12:27;;;;;;;8.32;6.88;;;1.00;99.90;;;;;;5031558;28;20299;-47
2021/03/06 07:14:54;;;;;;;7.88;5.70;;;1.00;99.90;;;;;;5031415;28;20247;-43
2021/03/06 07:17:21;;;;;;;9.30;6.03;;;1.00;99.90;;;;;;5031665;28;20259;-44
2021/03/06 07:19:49;;;;;;;11.60;7.18;;;1.10;99.90;;;;;;5031716;28;20263;-45
2021/03/06 07:22:16;;;;;;;7.90;6.32;;;1.20;99.90;;;;;;5031370;28;20718;-44
2021/03/06 07:24:46;;;;;;;7.35;6.03;;;1.20;99.90;;;;;;5031703;28;20204;-44
2021/03/06 07:27:13;;;;;;;8.40;6.18;;;1.20;99.90;;;;;;5031690;28;20401;-46
2021/03/06 07:29:40;;;;;;;8.35;6.43;;;1.20;99.90;;;;;;5031379;28;20235;-44
2021/03/06 07:32:11;;;;;;;7.50;6.68;;;1.30;99.90;;;;;;5031370;28;20687;-44
2021/03/06 07:34:38;;;;;;;9.10;6.25;;;1.40;99.90;;;;;;5031599;28;20227;-45
2021/03/06 07:37:08;;;;;;;6.45;5.80;;;1.40;99.80;;;;;;5031336;28;20303;-47
2021/03/06 07:39:38;;;;;;;7.53;5.95;;;1.50;99.70;;;;;;5031260;28;20231;-45
2021/03/06 07:42:15;;;;;;;6.75;5.38;;;1.60;99.60;;;;;;5031251;28;20238;-46
2021/03/06 07:44:44;;;;;;;6.78;5.70;;;1.70;99.30;;;;;;5031464;28;20299;-48
2021/03/06 07:47:13;;;;;;;7.35;5.90;;;1.80;99.10;;;;;;5031064;28;20671;-46
2021/03/06 07:49:42;;;;;;;7.63;6.07;;;1.90;98.90;;;;;;5031204;28;20213;-44
2021/03/06 07:52:12;;;;;;;6.35;5.65;;;2.00;98.60;;;;;;5031036;28;20262;-42
2021/03/06 07:54:39;;;;;;;10.68;6.07;;;2.10;98.40;;;;;;5031101;28;20262;-41
2021/03/06 07:57:07;;;;;;;5.82;5.32;;;2.10;98.30;;;;;;5030843;28;20291;-42
2021/03/06 07:59:47;;;;;;;6.28;5.07;;;2.10;98.20;;;;;;5031025;28;20209;-42
2021/03/06 08:02:37;;;;;;;6.38;5.05;;;2.10;98.20;;;;;;5030705;28;20244;-42
2021/03/06 08:05:07;;;;;;;6.50;5.85;;;2.10;98.00;;;;;;5030877;28;20215;-42
2021/03/06 08:07:44;;;;;;;5.95;5.13;;;2.00;98.10;;;;;;5034331;28;20758;-43
2021/03/06 08:10:13;;;;;;;5.93;5.22;;;2.10;98.10;;;;;;5034939;28;20224;-44
2021/03/06 08:12:40;;;;;;;6.33;5.23;;;2.10;97.90;;;;;;5034527;28;20253;-44
2021/03/06 08:15:29;;;;;;;6.82;5.55;;;2.10;97.90;;;;;;5034800;28;20287;-44
2021/03/06 08:17:57;;;;;;;5.90;5.15;;;2.20;97.60;;;;;;5034614;28;20208;-43
2021/03/06 08:20:28;;;;;;;7.47;5.45;;;2.20;97.50;;;;;;5034516;28;20209;-42
2021/03/06 08:23:19;;;;;;;7.18;5.18;;;2.20;97.60;;;;;;5034712;28;20295;-41
2021/03/06 08:26:10;;;;;;;7.68;5.32;;;2.30;97.20;;;;;;5034300;28;20747;-43
2021/03/06 08:28:37;;;;;;;5.68;5.05;;;2.40;97.10;;;;;;5034485;28;20209;-43
2021/03/06 08:31:38;;;;;;;9.35;4.70;;;2.50;96.80;;;;;;5034522;28;20208;-43
2021/03/06 08:34:27;;;;;;;6.10;4.97;;;2.60;96.80;;;;;;5034271;28;20210;-41
2021/03/06 08:37:28;;;;;;;5.20;4.70;;;2.70;96.20;;;;;;5034213;28;20205;-46
2021/03/06 08:39:57;;;;;;;6.68;5.00;;;2.80;95.80;;;;;;5034445;28;20236;-44
2021/03/06 08:42:25;;;;;;;5.30;4.63;;;2.90;95.70;;;;;;5034210;28;20274;-46
2021/03/06 08:44:54;;;;;;;5.97;5.00;;;2.90;95.60;;;;;;5034036;28;20209;-43
2021/03/06 08:47:22;;;;;;;8.18;5.18;;;2.90;95.60;;;;;;5034236;28;20208;-42
2021/03/06 08:49:52;;;;;;;5.35;4.75;;;2.80;95.50;;;;;;5034072;28;20227;-42
2021/03/06 08:52:19;;;;;;;6.20;4.90;;;2.90;95.70;;;;;;5034330;28;20291;-45
2021/03/06 08:54:46;;;;;;;6.30;5.10;;;2.80;95.50;;;;;;5033825;28;20251;-44
2021/03/06 08:57:24;;;;;;;5.07;4.22;;;2.80;95.60;;;;;;5033924;28;20216;-49
2021/03/06 09:00:15;;;;;;;4.68;4.20;;;2.80;95.50;;;;;;5033992;28;20217;-47
2021/03/06 09:02:42;;;;;;;4.45;3.95;;;2.90;94.70;;;;;;5033566;28;20248;-49
2021/03/06 09:05:11;;;;;;;5.30;4.72;;;3.00;94.40;;;;;;5033878;28;20274;-48
2021/03/06 09:07:40;;;;;;;4.95;4.53;;;3.00;94.60;;;;;;5033819;28;20209;-48
2021/03/06 09:10:31;;;;;;;5.18;4.55;;;3.00;94.60;;;;;;5033704;28;20557;-46
2021/03/06 09:13:01;;;;;;;6.95;5.85;;;3.10;94.70;;;;;;5033689;28;20296;-46
2021/03/06 09:15:35;;;;;;;5.07;4.57;;;3.20;94.50;;;;;;5033715;28;20248;-47
2021/03/06 09:18:05;;;;;;;6.07;4.88;;;3.20;94.60;;;;;;5033558;28;20311;-46
2021/03/06 09:20:38;;;;;;;13.95;10.63;;;3.30;94.50;;;;;;5033434;28;20244;-47
2021/03/06 09:23:05;;;;;;;5.00;3.95;;;3.40;94.30;;;;;;5033513;28;20215;-48
2021/03/06 09:25:34;;;;;;;4.60;3.42;;;3.50;93.40;;;;;;5033051;28;20213;-46
2021/03/06 09:28:03;;;;;;;5.53;4.50;;;3.60;92.90;;;;;;5033347;28;20334;-46
2021/03/06 09:30:34;;;;;;;5.32;4.80;;;3.50;93.10;;;;;;5033215;28;20291;-48
2021/03/06 09:33:02;;;;;;;7.78;6.53;;;3.50;92.90;;;;;;5033102;28;20249;-43
2021/03/06 09:35:29;;;;;;;4.32;3.92;;;3.60;93.20;;;;;;5033195;28;20690;-43
2021/03/06 09:38:20;;;;;;;4.90;3.58;;;3.60;92.70;;;;;;5033252;28;20247;-46
2021/03/06 09:40:47;;;;;;;5.25;4.30;;;3.70;91.20;;;;;;5022976;28;20260;-44
2021/03/06 09:43:28;;;;;;;5.50;5.00;;;3.80;92.00;;;;;;5033036;28;20581;-44
2021/03/06 09:45:58;;;;;;;6.03;4.13;;;3.90;92.00;;;;;;5033290;28;20240;-45
2021/03/06 09:48:26;;;;;;;4.30;3.90;;;3.90;92.10;;;;;;5032962;28;20245;-42
2021/03/06 09:50:55;;;;;;;5.15;4.38;;;3.90;91.80;;;;;;5033019;28;20691;-45
2021/03/06 09:53:24;;;;;;;4.35;3.95;;;3.80;92.00;;;;;;5033071;28;20212;-43
2021/03/06 09:56:11;;;;;;;5.32;4.82;;;3.90;92.10;;;;;;5032928;28;20626;-43
2021/03/06 09:58:39;;;;;;;5.60;4.65;;;4.00;91.60;;;;;;5033226;28;20725;-44
2021/03/06 10:01:16;;;;;;;8.90;4.15;;;3.90;91.80;;;;;;5032793;28;20311;-44
2021/03/06 10:03:45;;;;;;;5.45;4.18;;;3.90;91.60;;;;;;4993327;28;20210;-43
2021/03/06 10:06:15;;;;;;;4.22;3.83;;;4.00;91.80;;;;;;4993247;28;20300;-44
2021/03/06 10:08:52;;;;;;;5.22;4.05;;;4.10;91.50;;;;;;4993500;28;20724;-46
2021/03/06 10:11:20;;;;;;;12.57;5.35;;;4.20;91.20;;;;;;4993504;28;20293;-45
2021/03/06 10:13:51;;;;;;;7.47;5.00;;;4.30;90.90;;;;;;4993217;28;20249;-45
2021/03/06 10:16:19;;;;;;;4.57;4.18;;;4.40;90.70;;;;;;4993203;28;20214;-47
2021/03/06 10:18:48;;;;;;;6.18;5.68;;;4.40;90.80;;;;;;4993117;28;20301;-44
2021/03/06 10:21:18;;;;;;;4.10;3.80;;;4.40;90.70;;;;;;4992758;28;20613;-52
2021/03/06 10:23:46;;;;;;;3.85;3.55;;;4.60;90.50;;;;;;4993046;28;20214;-48
2021/03/06 10:26:19;;;;;;;4.93;3.88;;;4.70;90.40;;;;;;4993059;28;20297;-50
2021/03/06 10:28:47;;;;;;;4.47;3.67;;;4.80;90.00;;;;;;4992532;28;20626;-48
2021/03/06 10:31:36;;;;;;;4.40;3.95;;;4.80;89.40;;;;;;4992845;28;20638;-46
2021/03/06 10:34:22;;;;;;;4.05;3.60;;;4.70;87.80;;;;;;4992835;28;20309;-48
2021/03/06 10:37:16;;;;;;;4.57;4.18;;;4.70;88.00;;;;;;4993178;28;20288;-47
2021/03/06 10:39:57;;;;;;;3.78;3.33;;;4.70;88.10;;;;;;4992943;28;20289;-47
2021/03/06 10:42:27;;;;;;;5.60;3.30;;;4.80;87.30;;;;;;4992795;28;20336;-47
2021/03/06 10:44:54;;;;;;;3.15;2.85;;;4.90;87.50;;;;;;4992614;28;20305;-44
2021/03/06 10:47:21;;;;;;;4.95;4.55;;;4.90;87.40;;;;;;4992710;28;20297;-44
2021/03/06 10:49:49;;;;;;;3.33;3.03;;;5.00;87.00;;;;;;4992543;28;20245;-42
2021/03/06 10:52:26;;;;;;;5.20;3.22;;;5.00;85.30;;;;;;4992763;28;20281;-43
2021/03/06 10:54:55;;;;;;;3.88;2.83;;;5.10;84.70;;;;;;4992776;28;20224;-43
2021/03/06 10:57:21;;;;;;;6.40;3.15;;;5.10;84.70;;;;;;4992605;28;20214;-43
2021/03/06 10:59:49;;;;;;;3.90;3.50;;;5.20;84.30;;;;;;4992571;28;20599;-45
2021/03/06 11:02:27;;;;;;;4.82;2.83;;;5.30;84.50;;;;;;5008611;28;20247;-44
2021/03/06 11:05:13;;;;;;;5.22;3.05;;;5.30;82.80;;;;;;5031964;28;20208;-46
2021/03/06 11:07:40;;;;;;;3.58;3.28;;;5.30;83.10;;;;;;5031930;28;20239;-48
2021/03/06 11:10:08;;;;;;;2.92;2.72;;;5.30;83.30;;;;;;5031642;28;20309;-48
2021/03/06 11:12:35;;;;;;;4.28;2.80;;;5.40;82.90;;;;;;5031657;28;20215;-49
2021/03/06 11:15:11;;;;;;;3.30;2.97;;;5.40;82.40;;;;;;5031759;28;20212;-45
2021/03/06 11:17:39;;;;;;;2.92;2.72;;;5.50;81.70;;;;;;5031844;28;20322;-46
2021/03/06 11:20:09;;;;;;;4.30;3.53;;;5.50;80.90;;;;;;5031733;28;20258;-44
2021/03/06 11:22:36;;;;;;;4.13;3.67;;;5.60;80.10;;;;;;5031443;28;20591;-46
2021/03/06 11:25:05;;;;;;;3.10;2.90;;;5.70;80.60;;;;;;5031662;28;20254;-47
2021/03/06 11:27:42;;;;;;;3.65;3.05;;;5.70;81.00;;;;;;5031506;28;20292;-48
2021/03/06 11:30:11;;;;;;;5.18;3.72;;;5.80;80.70;;;;;;5031804;28;20219;-45
2021/03/06 11:32:39;;;;;;;4.32;3.42;;;5.90;79.70;;;;;;5031416;28;20710;-46
2021/03/06 11:35:07;;;;;;;3.75;3.35;;;6.00;79.60;;;;;;5031500;28;20230;-44
2021/03/06 11:37:34;;;;;;;5.05;3.30;;;5.90;79.70;;;;;;5031403;28;20263;-45
2021/03/06 11:40:02;;;;;;;3.75;3.42;;;5.90;79.30;;;;;;5031695;28;20205;-46
2021/03/06 11:42:29;;;;;;;3.28;2.83;;;5.90;77.70;;;;;;5034739;28;20783;-44
2021/03/06 11:44:57;;;;;;;4.45;3.53;;;6.00;76.70;;;;;;5035365;28;20212;-47
2021/03/06 11:47:24;;;;;;;3.35;3.08;;;6.10;77.20;;;;;;5035542;28;20247;-47
2021/03/06 11:49:53;;;;;;;4.40;2.80;;;6.10;77.90;;;;;;5035052;28;20251;-47
2021/03/06 11:52:20;;;;;;;3.42;3.10;;;6.30;77.60;;;;;;5034897;28;20205;-47
2021/03/06 11:54:47;;;;;;;3.47;3.10;;;6.40;76.70;;;;;;5035285;28;20209;-47
2021/03/06 11:57:24;;;;;;;3.60;3.03;;;6.30;75.10;;;;;;5035023;28;20282;-49
2021/03/06 11:59:51;;;;;;;5.95;3.67;;;6.30;75.90;;;;;;5034895;28;20236;-50
2021/03/06 12:02:18;;;;;;;3.28;2.97;;;6.40;75.60;;;;;;5034583;28;20287;-46
2021/03/06 12:04:47;;;;;;;5.55;3.95;;;6.30;75.80;;;;;;5034796;28;20213;-47
2021/03/06 12:07:15;;;;;;;3.42;2.90;;;6.30;75.20;;;;;;5035090;28;20303;-47
2021/03/06 12:09:42;;;;;;;4.00;3.60;;;6.30;75.20;;;;;;5034888;28;20234;-46
2021/03/06 12:12:09;;;;;;;3.55;3.25;;;6.50;75.50;;;;;;5034717;28;20208;-49
2021/03/06 12:14:36;;;;;;;3.95;3.33;;;6.60;75.10;;;;;;5034552;28;20270;-51
2021/03/06 12:17:04;;;;;;;4.43;3.75;;;6.50;75.30;;;;;;5034500;28;20668;-44
2021/03/06 12:19:31;;;;;;;3.67;3.28;;;6.40;75.30;;;;;;5034557;28;20209;-44
2021/03/06 12:21:58;;;;;;;3.67;3.35;;;6.50;76.30;;;;;;5034304;28;20259;-43
2021/03/06 12:24:26;;;;;;;5.07;3.60;;;6.70;77.00;;;;;;5034307;28;20733;-44
2021/03/06 12:26:53;;;;;;;3.95;3.15;;;6.80;76.80;;;;;;5034805;28;20308;-44
2021/03/06 12:29:21;;;;;;;3.78;3.40;;;7.00;75.90;;;;;;5034546;28;20263;-49
2021/03/06 12:31:48;;;;;;;3.53;3.23;;;7.00;75.10;;;;;;5034382;28;20288;-49
2021/03/06 12:34:16;;;;;;;3.67;3.20;;;7.10;75.40;;;;;;5034544;28;20216;-43
2021/03/06 12:36:44;;;;;;;3.45;3.15;;;7.10;75.20;;;;;;5034358;28;20244;-45
2021/03/06 12:39:11;;;;;;;4.15;3.70;;;7.10;75.50;;;;;;5034158;28;20248;-43
2021/03/06 12:41:40;;;;;;;3.55;3.25;;;7.20;74.80;;;;;;5034039;28;20235;-44
2021/03/06 12:44:07;;;;;;;4.20;3.00;;;7.20;74.10;;;;;;5034174;28;20570;-44
2021/03/06 12:46:34;;;;;;;4.72;3.40;;;7.10;73.60;;;;;;5034021;28;20232;-44
2021/03/06 12:49:02;;;;;;;4.25;3.08;;;7.10;73.80;;;;;;5034388;28;20248;-45
2021/03/06 12:51:30;;;;;;;3.78;3.47;;;7.00;73.50;;;;;;5033754;28;20663;-43
2021/03/06 12:53:57;;;;;;;4.22;3.30;;;7.10;74.20;;;;;;5033889;28;20745;-44
2021/03/06 12:56:24;;;;;;;5.05;3.38;;;7.10;73.90;;;;;;5034692;28;20553;-44
2021/03/06 12:58:52;;;;;;;4.70;4.30;;;7.10;72.90;;;;;;5033695;28;20303;-44
2021/03/06 13:01:19;;;;;;;5.07;4.50;;;7.10;72.80;;;;;;5033470;28;20326;-43
2021/03/06 13:03:46;;;;;;;4.53;3.78;;;7.10;72.50;;;;;;5033827;28;20216;-43
2021/03/06 13:06:13;;;;;;;4.70;4.07;;;7.00;72.60;;;;;;5033567;28;20299;-47
2021/03/06 13:08:40;;;;;;;4.18;3.17;;;6.90;73.30;;;;;;5034142;28;20229;-47